Time;durP1;ratioP1;P1;durP2;ratioP2;P2;SDS_P1;SDS_P2;PMS_P1;PMS_P2;Temp;Humidity;BMP_temperature;BMP_pressure;BME280_temperature;BME280_humidity;BME280_pressure;Samples;Min_cycle;Max_cycle;Signal;HPM_P1;HPM_P2
2023/08/29 00:02:05;;;;;;;0.70;0.38;;;13.30;99.90;;;;;;5107191;28;20044;-72
2023/08/29 00:04:31;;;;;;;2.55;0.30;;;13.30;99.90;;;;;;5082713;28;20096;-72
2023/08/29 00:06:57;;;;;;;0.40;0.20;;;13.20;99.90;;;;;;5069129;28;20039;-72
2023/08/29 00:09:22;;;;;;;0.22;0.22;;;13.20;99.90;;;;;;5088709;28;20027;-72
2023/08/29 00:11:48;;;;;;;0.40;0.20;;;13.20;99.90;;;;;;5085085;28;20035;-72
2023/08/29 00:14:13;;;;;;;0.20;0.10;;;13.20;99.90;;;;;;5084047;28;20492;-72
2023/08/29 00:16:39;;;;;;;0.47;0.20;;;13.20;99.90;;;;;;5104880;28;20039;-72
2023/08/29 00:19:05;;;;;;;0.93;0.30;;;13.10;99.90;;;;;;5105732;28;20042;-72
2023/08/29 00:21:31;;;;;;;0.40;0.20;;;13.10;99.90;;;;;;5087135;28;20052;-72
2023/08/29 00:23:57;;;;;;;0.90;0.30;;;13.10;99.90;;;;;;5070033;28;20396;-72
2023/08/29 00:26:22;;;;;;;0.63;0.30;;;13.10;99.90;;;;;;5087374;28;20043;-72
2023/08/29 00:28:49;;;;;;;0.30;0.20;;;13.10;99.90;;;;;;5088507;28;20046;-72
2023/08/29 00:31:15;;;;;;;1.50;0.20;;;13.10;99.90;;;;;;5104094;28;20456;-72
2023/08/29 00:33:40;;;;;;;0.80;0.30;;;13.00;99.90;;;;;;5084529;27;20062;-72
2023/08/29 00:36:06;;;;;;;0.40;0.20;;;13.00;99.90;;;;;;5068446;28;20062;-72
2023/08/29 00:38:32;;;;;;;1.58;0.32;;;13.00;99.90;;;;;;5088143;28;20055;-72
2023/08/29 00:40:59;;;;;;;0.63;0.30;;;12.90;99.90;;;;;;5110237;28;20036;-72
2023/08/29 00:43:25;;;;;;;0.70;0.30;;;13.00;99.90;;;;;;5106287;28;20050;-72
2023/08/29 00:45:50;;;;;;;1.08;0.30;;;12.90;99.90;;;;;;5110851;28;20024;-72
2023/08/29 00:48:16;;;;;;;1.42;0.30;;;12.90;99.90;;;;;;5110522;28;20028;-72
2023/08/29 00:50:42;;;;;;;2.22;0.45;;;12.90;99.90;;;;;;5104460;28;20031;-72
2023/08/29 00:53:09;;;;;;;0.77;0.40;;;12.90;99.90;;;;;;5087001;28;20115;-72
2023/08/29 00:55:35;;;;;;;1.38;0.20;;;12.90;99.90;;;;;;5104653;28;20039;-73
2023/08/29 00:58:02;;;;;;;0.70;0.20;;;12.80;99.90;;;;;;5086394;28;20410;-72
2023/08/29 01:00:29;;;;;;;0.45;0.30;;;12.80;99.90;;;;;;5085523;28;20492;-72
2023/08/29 01:02:55;;;;;;;0.20;0.17;;;12.80;99.90;;;;;;5086295;28;20043;-72
2023/08/29 01:05:21;;;;;;;0.50;0.30;;;12.80;99.90;;;;;;5063771;28;20042;-72
2023/08/29 01:07:56;;;;;;;0.52;0.30;;;12.80;99.90;;;;;;5069933;28;20036;-72
2023/08/29 01:10:45;;;;;;;2.05;0.65;;;12.80;99.90;;;;;;5087325;28;20512;-72
2023/08/29 01:13:31;;;;;;;1.80;0.30;;;12.80;99.90;;;;;;5101841;28;20039;-72
2023/08/29 01:16:01;;;;;;;0.77;0.40;;;12.70;99.90;;;;;;5086873;28;20036;-73
2023/08/29 01:18:30;;;;;;;1.23;0.60;;;12.70;99.90;;;;;;5085322;28;20931;-72
2023/08/29 01:21:27;;;;;;;1.83;0.50;;;12.70;99.90;;;;;;5103409;28;20063;-72
2023/08/29 01:24:01;;;;;;;;;;;12.70;99.90;;;;;;5068760;28;20048;-72
2023/08/29 01:26:28;;;;;;;1.25;0.45;;;12.70;99.90;;;;;;5067421;28;19963;-72
2023/08/29 01:28:55;;;;;;;1.25;0.63;;;12.70;99.90;;;;;;5071443;28;20042;-72
2023/08/29 01:31:21;;;;;;;1.38;0.40;;;12.70;99.90;;;;;;5085445;28;20035;-72
2023/08/29 01:33:47;;;;;;;1.55;0.70;;;12.70;99.90;;;;;;5104821;27;20504;-72
2023/08/29 01:36:13;;;;;;;0.88;0.50;;;12.70;99.90;;;;;;5084625;28;20039;-72
2023/08/29 01:38:39;;;;;;;3.65;0.73;;;12.70;99.90;;;;;;5068613;28;20450;-72
2023/08/29 01:41:04;;;;;;;1.98;0.80;;;12.70;99.90;;;;;;5085248;28;20205;-72
2023/08/29 01:43:30;;;;;;;1.67;0.77;;;12.70;99.90;;;;;;5074822;28;20040;-72
2023/08/29 01:45:56;;;;;;;2.28;0.65;;;12.60;99.90;;;;;;5088951;28;20173;-72
2023/08/29 01:48:21;;;;;;;0.98;0.40;;;12.60;99.90;;;;;;5091455;28;20701;-72
2023/08/29 01:50:48;;;;;;;1.05;0.50;;;12.60;99.90;;;;;;5090403;28;20401;-72
2023/08/29 01:53:14;;;;;;;0.52;0.22;;;12.50;99.90;;;;;;5087869;28;20100;-72
2023/08/29 01:55:40;;;;;;;2.75;0.30;;;12.50;99.90;;;;;;5085744;28;20098;-72
2023/08/29 01:58:07;;;;;;;1.48;0.45;;;12.50;99.90;;;;;;5086828;28;20539;-72
2023/08/29 02:00:34;;;;;;;1.40;0.38;;;12.50;99.90;;;;;;5118139;27;20040;-72
2023/08/29 02:02:59;;;;;;;0.63;0.32;;;12.50;99.90;;;;;;5081104;28;20031;-72
2023/08/29 02:05:25;;;;;;;0.68;0.40;;;12.50;99.90;;;;;;5084429;28;20476;-72
2023/08/29 02:07:51;;;;;;;3.00;0.52;;;12.50;99.90;;;;;;5103568;27;20050;-72
2023/08/29 02:10:16;;;;;;;0.80;0.32;;;12.40;99.90;;;;;;5094476;28;20115;-72
2023/08/29 02:12:42;;;;;;;1.17;0.60;;;12.40;99.90;;;;;;5084121;28;20691;-72
2023/08/29 02:15:09;;;;;;;1.80;0.60;;;12.40;99.90;;;;;;5085219;28;20118;-72
2023/08/29 02:17:36;;;;;;;1.33;0.60;;;12.40;99.90;;;;;;5104231;28;20039;-72
2023/08/29 02:20:04;;;;;;;1.10;0.50;;;12.40;99.90;;;;;;5102549;28;21276;-72
2023/08/29 02:22:30;;;;;;;1.35;0.63;;;12.40;99.90;;;;;;5085474;28;20043;-72
2023/08/29 02:24:56;;;;;;;1.90;0.63;;;12.40;99.90;;;;;;5085865;28;20035;-72
2023/08/29 02:27:22;;;;;;;0.80;0.50;;;12.40;99.90;;;;;;5084236;28;20662;-72
2023/08/29 02:29:47;;;;;;;1.10;0.40;;;12.40;99.90;;;;;;5080283;28;21320;-72
2023/08/29 02:32:14;;;;;;;1.55;0.60;;;12.30;99.90;;;;;;5103525;28;20036;-72
2023/08/29 02:34:39;;;;;;;1.20;0.47;;;12.30;99.90;;;;;;5084872;28;20039;-72
2023/08/29 02:37:05;;;;;;;1.00;0.50;;;12.30;99.90;;;;;;5084563;28;20105;-72
2023/08/29 02:39:33;;;;;;;1.80;0.70;;;12.30;99.90;;;;;;5083558;28;20035;-72
2023/08/29 02:41:59;;;;;;;1.13;0.63;;;12.20;99.90;;;;;;5102299;28;20054;-72
2023/08/29 02:44:25;;;;;;;1.80;0.70;;;12.20;99.90;;;;;;5082908;28;20047;-72
2023/08/29 02:46:51;;;;;;;0.98;0.50;;;12.20;99.90;;;;;;5102697;28;20302;-72
2023/08/29 02:49:16;;;;;;;3.47;0.70;;;12.20;99.90;;;;;;5081739;28;20027;-73
2023/08/29 02:51:42;;;;;;;0.40;0.30;;;12.20;99.90;;;;;;5084057;28;20027;-73
2023/08/29 02:54:07;;;;;;;1.02;0.40;;;12.20;99.90;;;;;;5084427;28;20513;-73
2023/08/29 02:56:33;;;;;;;1.30;0.57;;;12.20;99.90;;;;;;5085336;28;20378;-72
2023/08/29 02:58:58;;;;;;;3.72;0.50;;;12.20;99.90;;;;;;5065656;28;20127;-72
2023/08/29 03:01:24;;;;;;;1.73;0.47;;;12.20;99.90;;;;;;5083170;28;20040;-72
2023/08/29 03:03:50;;;;;;;0.88;0.40;;;12.10;99.90;;;;;;5085154;28;20556;-73
2023/08/29 03:06:15;;;;;;;1.10;0.50;;;12.10;99.90;;;;;;5084522;28;20484;-72
2023/08/29 03:08:41;;;;;;;1.15;0.50;;;12.10;99.90;;;;;;5084815;28;20380;-73
2023/08/29 03:11:06;;;;;;;1.30;0.63;;;12.10;99.90;;;;;;5102461;28;20489;-73
2023/08/29 03:13:32;;;;;;;1.05;0.50;;;12.10;99.90;;;;;;5083532;28;20418;-73
2023/08/29 03:15:59;;;;;;;0.68;0.50;;;12.10;99.90;;;;;;5103340;28;20063;-72
2023/08/29 03:18:26;;;;;;;1.70;0.63;;;12.10;99.90;;;;;;5083836;28;20036;-72
2023/08/29 03:20:52;;;;;;;0.95;0.45;;;12.00;99.90;;;;;;5100643;28;20066;-72
2023/08/29 03:23:18;;;;;;;1.00;0.60;;;12.00;99.90;;;;;;5081972;28;20031;-72
2023/08/29 03:25:43;;;;;;;2.00;0.60;;;12.00;99.90;;;;;;5085064;28;20485;-72
2023/08/29 03:28:09;;;;;;;0.82;0.52;;;12.00;99.90;;;;;;5085829;28;20035;-72
2023/08/29 03:30:34;;;;;;;0.68;0.35;;;12.00;99.90;;;;;;5100842;28;20481;-73
2023/08/29 03:33:01;;;;;;;2.05;0.60;;;12.00;99.90;;;;;;5080573;28;20073;-73
2023/08/29 03:35:27;;;;;;;1.10;0.50;;;11.90;99.90;;;;;;5101397;28;20097;-73
2023/08/29 03:37:52;;;;;;;1.20;0.50;;;11.90;99.90;;;;;;5082136;28;20071;-73
2023/08/29 03:40:18;;;;;;;1.10;0.35;;;11.90;99.90;;;;;;5067554;28;20046;-73
2023/08/29 03:42:43;;;;;;;0.80;0.32;;;11.90;99.90;;;;;;5088702;28;20394;-72
2023/08/29 03:45:09;;;;;;;2.30;0.40;;;11.90;99.90;;;;;;5102411;28;20365;-72
2023/08/29 03:47:37;;;;;;;0.95;0.40;;;11.90;99.90;;;;;;5087762;28;20038;-73
2023/08/29 03:50:03;;;;;;;2.83;0.45;;;11.80;99.90;;;;;;5086872;28;20123;-73
2023/08/29 03:52:29;;;;;;;1.38;0.60;;;11.70;99.90;;;;;;5083898;28;20123;-72
2023/08/29 03:54:55;;;;;;;1.13;0.52;;;11.70;99.90;;;;;;5066770;28;20460;-73
2023/08/29 03:57:24;;;;;;;1.30;0.40;;;11.70;99.90;;;;;;5102063;28;20039;-72
2023/08/29 03:59:50;;;;;;;1.73;0.60;;;11.70;99.90;;;;;;5066898;28;20040;-72
2023/08/29 04:02:16;;;;;;;1.17;0.57;;;11.70;99.90;;;;;;5066493;28;20038;-72
2023/08/29 04:04:44;;;;;;;1.48;0.55;;;11.70;99.90;;;;;;5101503;28;20504;-72
2023/08/29 04:07:12;;;;;;;2.47;0.68;;;11.70;99.90;;;;;;5100946;28;21697;-72
2023/08/29 04:09:39;;;;;;;2.30;0.68;;;11.70;99.90;;;;;;5103635;28;20098;-72
2023/08/29 04:12:07;;;;;;;1.35;0.60;;;11.70;99.90;;;;;;5083582;28;20046;-72
2023/08/29 04:14:33;;;;;;;1.08;0.43;;;11.70;99.90;;;;;;5101708;28;20116;-72
2023/08/29 04:16:59;;;;;;;1.08;0.60;;;11.70;99.90;;;;;;5103148;28;20426;-72
2023/08/29 04:19:25;;;;;;;1.75;0.45;;;11.70;99.90;;;;;;5102565;28;20063;-72
2023/08/29 04:21:50;;;;;;;1.45;0.65;;;11.70;99.90;;;;;;5082924;28;20535;-73
2023/08/29 04:24:16;;;;;;;1.85;0.73;;;11.70;99.90;;;;;;5068399;28;20035;-73
2023/08/29 04:26:41;;;;;;;1.30;0.60;;;11.70;99.90;;;;;;5083701;28;20050;-73
2023/08/29 04:29:07;;;;;;;1.23;0.40;;;11.70;99.90;;;;;;5083370;28;20655;-73
2023/08/29 04:31:33;;;;;;;2.13;0.70;;;11.70;99.90;;;;;;5079667;28;20075;-72
2023/08/29 04:33:59;;;;;;;1.58;0.50;;;11.70;99.90;;;;;;5084887;28;20046;-73
2023/08/29 04:36:25;;;;;;;3.05;0.70;;;11.60;99.90;;;;;;5081753;28;20423;-72
2023/08/29 04:38:51;;;;;;;1.73;0.35;;;11.70;99.90;;;;;;5084076;28;20377;-72
2023/08/29 04:41:16;;;;;;;0.77;0.40;;;11.60;99.90;;;;;;5102563;28;20361;-72
2023/08/29 04:43:42;;;;;;;3.55;0.68;;;11.60;99.90;;;;;;5086166;28;20074;-73
2023/08/29 04:46:08;;;;;;;2.78;0.70;;;11.60;99.90;;;;;;5086263;28;20051;-73
2023/08/29 04:48:34;;;;;;;1.58;0.60;;;11.60;99.90;;;;;;5087335;28;20039;-72
2023/08/29 04:51:00;;;;;;;1.58;0.90;;;11.60;99.90;;;;;;5084434;28;20092;-72
2023/08/29 04:53:26;;;;;;;2.25;0.90;;;11.60;99.90;;;;;;5088493;28;20047;-72
2023/08/29 04:56:03;;;;;;;2.50;0.90;;;11.50;99.90;;;;;;5106324;28;20082;-72
2023/08/29 04:58:29;;;;;;;1.90;0.90;;;11.50;99.90;;;;;;5087847;28;20043;-72
2023/08/29 05:00:55;;;;;;;4.15;0.90;;;11.60;99.90;;;;;;5101413;27;20603;-72
2023/08/29 05:03:21;;;;;;;3.08;0.68;;;11.60;99.90;;;;;;5105447;28;20118;-72
2023/08/29 05:05:47;;;;;;;2.17;0.52;;;11.50;99.90;;;;;;5085880;28;20408;-72
2023/08/29 05:08:13;;;;;;;1.30;0.50;;;11.50;99.90;;;;;;5085089;28;20032;-72
2023/08/29 05:10:40;;;;;;;1.75;0.52;;;11.50;99.90;;;;;;5066977;28;20089;-73
2023/08/29 05:13:05;;;;;;;2.30;0.60;;;11.50;99.90;;;;;;5068731;28;20092;-73
2023/08/29 05:15:32;;;;;;;1.02;0.55;;;11.50;99.90;;;;;;5105202;28;20063;-73
2023/08/29 05:17:57;;;;;;;1.60;0.70;;;11.50;99.90;;;;;;5087252;28;20089;-73
2023/08/29 05:20:23;;;;;;;1.60;0.77;;;11.50;99.90;;;;;;5064856;28;20048;-73
2023/08/29 05:22:49;;;;;;;1.77;0.73;;;11.50;99.90;;;;;;5083500;28;20094;-73
2023/08/29 05:25:14;;;;;;;0.80;0.40;;;11.50;99.90;;;;;;5083477;28;20561;-73
2023/08/29 05:27:40;;;;;;;1.35;0.55;;;11.50;99.90;;;;;;5085799;28;20109;-72
2023/08/29 05:30:07;;;;;;;1.15;0.50;;;11.50;99.90;;;;;;5080439;28;20036;-72
2023/08/29 05:32:33;;;;;;;0.77;0.45;;;11.50;99.90;;;;;;5084469;28;20481;-73
2023/08/29 05:34:59;;;;;;;2.22;1.02;;;11.50;99.90;;;;;;5088170;28;20094;-72
2023/08/29 05:37:24;;;;;;;1.05;0.60;;;11.50;99.90;;;;;;5081323;28;20508;-73
2023/08/29 05:39:50;;;;;;;1.30;0.60;;;11.50;99.90;;;;;;5081808;28;20032;-73
2023/08/29 05:42:16;;;;;;;1.45;0.50;;;11.50;99.90;;;;;;5084978;28;20040;-73
2023/08/29 05:44:42;;;;;;;1.95;0.65;;;11.50;99.90;;;;;;5088788;28;20032;-72
2023/08/29 05:47:07;;;;;;;1.17;0.50;;;11.60;99.90;;;;;;5086796;28;20029;-72
2023/08/29 05:49:34;;;;;;;1.63;0.70;;;11.50;99.90;;;;;;5086616;28;20044;-73
2023/08/29 05:51:59;;;;;;;1.27;0.55;;;11.60;99.90;;;;;;5082583;28;20044;-72
2023/08/29 05:54:25;;;;;;;0.80;0.45;;;11.60;99.90;;;;;;5060139;28;20044;-73
2023/08/29 05:56:50;;;;;;;1.63;0.60;;;11.60;99.90;;;;;;5083155;28;20410;-72
2023/08/29 05:59:16;;;;;;;1.88;0.57;;;11.60;99.90;;;;;;5080135;28;20439;-73
2023/08/29 06:01:42;;;;;;;2.15;0.70;;;11.60;99.90;;;;;;5076999;28;20480;-73
2023/08/29 06:04:08;;;;;;;1.55;0.70;;;11.60;99.90;;;;;;5086714;28;20031;-72
2023/08/29 06:06:33;;;;;;;2.03;0.50;;;11.60;99.90;;;;;;5085809;28;20036;-73
2023/08/29 06:08:59;;;;;;;2.05;0.60;;;11.60;99.90;;;;;;5080576;28;20035;-72
2023/08/29 06:11:26;;;;;;;0.80;0.50;;;11.70;99.90;;;;;;5081924;28;20028;-73
2023/08/29 06:13:52;;;;;;;2.15;0.70;;;11.60;99.90;;;;;;5081736;28;20078;-72
2023/08/29 06:16:17;;;;;;;0.90;0.50;;;11.70;99.90;;;;;;5082497;28;20059;-73
2023/08/29 06:18:43;;;;;;;1.92;0.80;;;11.60;99.90;;;;;;5081834;28;20051;-73
2023/08/29 06:21:09;;;;;;;2.45;0.80;;;11.70;99.90;;;;;;5076220;28;20047;-72
2023/08/29 06:23:34;;;;;;;1.60;0.70;;;11.70;99.90;;;;;;5065044;28;20044;-73
2023/08/29 06:26:00;;;;;;;2.33;0.80;;;11.70;99.90;;;;;;5086580;28;20036;-73
2023/08/29 06:28:27;;;;;;;2.50;0.82;;;11.70;99.90;;;;;;5064446;28;20128;-73
2023/08/29 06:30:52;;;;;;;1.30;0.68;;;11.80;99.90;;;;;;5080911;28;20122;-73
2023/08/29 06:33:18;;;;;;;2.47;0.80;;;11.80;99.90;;;;;;5081564;28;20214;-72
2023/08/29 06:35:43;;;;;;;2.80;0.90;;;11.90;99.90;;;;;;5083369;28;20089;-73
2023/08/29 06:38:09;;;;;;;2.10;0.80;;;11.90;99.90;;;;;;5063552;28;20095;-72
2023/08/29 06:40:35;;;;;;;2.35;0.90;;;11.90;99.90;;;;;;5078944;28;20050;-72
2023/08/29 06:43:01;;;;;;;2.20;0.90;;;11.90;99.90;;;;;;5074588;28;20039;-72
2023/08/29 06:45:26;;;;;;;2.63;0.95;;;12.00;99.90;;;;;;5079648;28;20071;-73
2023/08/29 06:47:52;;;;;;;2.30;0.90;;;12.00;99.90;;;;;;5082706;28;20492;-73
2023/08/29 06:50:18;;;;;;;2.00;0.88;;;12.10;99.90;;;;;;5083064;28;20403;-73
2023/08/29 06:52:43;;;;;;;1.40;0.85;;;12.10;99.90;;;;;;5080945;28;20125;-73
2023/08/29 06:55:13;;;;;;;1.92;0.70;;;12.20;99.90;;;;;;5078780;28;20214;-73
2023/08/29 06:57:38;;;;;;;1.80;0.93;;;12.30;99.90;;;;;;5082176;28;20108;-73
2023/08/29 07:00:04;;;;;;;3.13;0.70;;;12.40;99.90;;;;;;5081107;28;20477;-73
2023/08/29 07:02:30;;;;;;;2.50;0.90;;;12.40;99.90;;;;;;5079398;28;20040;-73
2023/08/29 07:04:56;;;;;;;2.92;0.90;;;12.50;99.90;;;;;;5060087;28;20048;-73
2023/08/29 07:07:21;;;;;;;2.28;0.98;;;12.60;99.90;;;;;;5080372;28;20106;-73
2023/08/29 07:09:47;;;;;;;1.73;0.75;;;12.70;99.90;;;;;;5064165;28;20056;-73
2023/08/29 07:12:12;;;;;;;2.60;0.88;;;12.80;99.90;;;;;;5081562;28;20494;-73
2023/08/29 07:14:38;;;;;;;2.22;0.80;;;12.90;99.90;;;;;;5080689;28;20051;-73
2023/08/29 07:17:04;;;;;;;1.48;0.68;;;13.00;99.90;;;;;;5080981;28;20040;-73
2023/08/29 07:19:30;;;;;;;2.72;0.80;;;13.00;99.90;;;;;;5066341;28;20044;-73
2023/08/29 07:21:56;;;;;;;2.45;0.93;;;13.10;99.90;;;;;;5113177;27;20135;-73
2023/08/29 07:24:23;;;;;;;1.95;0.93;;;13.20;99.90;;;;;;5081928;28;20042;-73
2023/08/29 07:26:48;;;;;;;3.45;0.82;;;13.30;99.90;;;;;;5084461;28;20044;-73
2023/08/29 07:29:14;;;;;;;2.15;1.05;;;13.30;99.90;;;;;;5083819;28;20036;-73
2023/08/29 07:31:40;;;;;;;2.97;0.80;;;13.40;99.90;;;;;;5081470;28;20485;-73
2023/08/29 07:34:05;;;;;;;3.00;0.95;;;13.50;99.90;;;;;;5083550;28;20051;-73
2023/08/29 07:36:31;;;;;;;2.55;0.68;;;13.50;99.90;;;;;;5097274;28;20424;-73
2023/08/29 07:38:56;;;;;;;2.58;0.80;;;13.60;99.90;;;;;;5089343;28;20400;-73
2023/08/29 07:41:23;;;;;;;2.85;0.95;;;13.60;99.90;;;;;;5083172;28;20408;-73
2023/08/29 07:43:48;;;;;;;2.33;0.80;;;13.70;99.90;;;;;;5082868;28;20039;-73
2023/08/29 07:46:14;;;;;;;1.98;0.73;;;13.80;99.90;;;;;;5101644;28;20080;-73
2023/08/29 07:48:40;;;;;;;2.45;0.98;;;13.90;99.90;;;;;;5083556;28;20031;-73
2023/08/29 07:51:05;;;;;;;2.83;0.90;;;13.90;99.90;;;;;;5083619;28;20505;-74
2023/08/29 07:53:31;;;;;;;1.92;0.90;;;14.00;99.90;;;;;;5084412;28;20126;-73
2023/08/29 07:55:57;;;;;;;3.78;1.00;;;14.00;99.90;;;;;;5083103;28;20040;-73
2023/08/29 07:58:23;;;;;;;2.40;0.80;;;14.10;99.90;;;;;;5082848;28;20168;-73
2023/08/29 08:00:48;;;;;;;2.47;0.80;;;14.10;99.90;;;;;;5086472;28;20125;-73
2023/08/29 08:03:14;;;;;;;1.73;0.75;;;14.20;99.90;;;;;;5084855;28;22345;-73
2023/08/29 08:05:39;;;;;;;2.65;1.10;;;14.30;99.90;;;;;;5102182;28;20557;-74
2023/08/29 08:08:05;;;;;;;1.98;0.80;;;14.30;99.90;;;;;;5102383;28;20035;-73
2023/08/29 08:10:30;;;;;;;2.35;0.85;;;14.30;99.90;;;;;;5082197;28;20035;-74
2023/08/29 08:12:56;;;;;;;2.97;0.75;;;14.40;99.90;;;;;;5080867;28;20123;-73
2023/08/29 08:15:22;;;;;;;1.08;0.60;;;14.50;99.90;;;;;;5085644;28;20479;-73
2023/08/29 08:17:47;;;;;;;2.67;1.10;;;14.60;99.90;;;;;;5072994;27;20075;-73
2023/08/29 08:20:13;;;;;;;2.40;1.10;;;14.60;99.90;;;;;;5081995;28;20404;-75
2023/08/29 08:22:40;;;;;;;4.38;0.90;;;14.70;99.90;;;;;;5057655;28;20515;-75
2023/08/29 08:25:09;;;;;;;1.42;0.77;;;14.70;99.90;;;;;;5080023;28;20065;-75
2023/08/29 08:27:34;;;;;;;1.60;0.70;;;14.80;99.90;;;;;;5066747;28;20423;-75
2023/08/29 08:30:01;;;;;;;2.30;0.85;;;14.80;99.90;;;;;;5102688;28;20043;-75
2023/08/29 08:32:27;;;;;;;1.30;0.60;;;14.80;99.90;;;;;;5070566;28;20061;-74
2023/08/29 08:34:55;;;;;;;1.02;0.52;;;14.90;99.90;;;;;;5100914;28;20479;-77
2023/08/29 08:37:21;;;;;;;0.88;0.40;;;14.90;99.90;;;;;;5087513;28;20063;-74
2023/08/29 08:39:47;;;;;;;2.13;0.60;;;15.00;99.90;;;;;;5084297;28;20471;-74
2023/08/29 08:42:15;;;;;;;3.60;0.60;;;15.10;99.90;;;;;;5100938;28;20047;-73
2023/08/29 08:44:42;;;;;;;2.17;0.70;;;15.10;99.90;;;;;;5104749;28;20203;-74
2023/08/29 08:47:09;;;;;;;1.40;0.65;;;15.10;99.90;;;;;;5070099;28;20069;-74
2023/08/29 08:49:34;;;;;;;1.45;0.70;;;15.10;99.90;;;;;;5082129;28;20041;-74
2023/08/29 08:52:02;;;;;;;2.45;0.80;;;15.20;99.90;;;;;;5082904;28;20032;-75
2023/08/29 08:54:29;;;;;;;1.00;0.52;;;15.20;99.90;;;;;;5086724;28;20404;-74
2023/08/29 08:56:57;;;;;;;0.88;0.50;;;15.30;99.90;;;;;;5084158;28;20050;-74
2023/08/29 08:59:24;;;;;;;0.82;0.40;;;15.30;99.90;;;;;;5103654;28;20500;-73
2023/08/29 09:01:50;;;;;;;0.40;0.40;;;15.30;99.90;;;;;;5081706;28;20040;-73
2023/08/29 09:04:15;;;;;;;2.38;0.60;;;15.40;99.90;;;;;;5081982;28;20548;-73
2023/08/29 09:06:41;;;;;;;0.90;0.50;;;15.40;99.90;;;;;;5100231;28;20039;-74
2023/08/29 09:09:27;;;;;;;2.55;0.40;;;15.50;99.90;;;;;;5084871;28;21777;-74
2023/08/29 09:11:54;;;;;;;0.68;0.47;;;15.40;99.90;;;;;;5113491;27;20686;-72
2023/08/29 09:14:24;;;;;;;1.88;0.43;;;15.50;99.90;;;;;;5088295;28;20069;-72
2023/08/29 09:16:57;;;;;;;1.20;0.63;;;15.50;99.90;;;;;;5083550;28;20032;-74
2023/08/29 09:19:24;;;;;;;1.42;0.70;;;15.50;99.90;;;;;;5084710;28;20069;-74
2023/08/29 09:21:50;;;;;;;3.17;0.70;;;15.60;99.90;;;;;;5080465;28;20131;-74
2023/08/29 09:24:30;;;;;;;3.17;0.47;;;15.60;99.90;;;;;;5084216;28;20796;-74
2023/08/29 09:26:56;;;;;;;0.85;0.40;;;15.70;99.90;;;;;;5103274;28;20038;-74
2023/08/29 09:29:22;;;;;;;0.93;0.40;;;15.70;99.90;;;;;;5086922;28;20035;-74
2023/08/29 09:31:48;;;;;;;2.35;0.70;;;15.80;99.90;;;;;;5068914;28;20053;-74
2023/08/29 09:34:30;;;;;;;1.25;0.60;;;15.90;99.90;;;;;;5087944;28;20043;-74
2023/08/29 09:37:02;;;;;;;1.23;0.50;;;16.10;99.90;;;;;;5104691;28;20262;-74
2023/08/29 09:39:28;;;;;;;2.88;0.63;;;16.20;99.90;;;;;;5086462;28;20062;-74
2023/08/29 09:42:06;;;;;;;1.45;0.70;;;16.20;99.90;;;;;;5080452;28;20044;-75
2023/08/29 09:44:37;;;;;;;1.02;0.50;;;16.20;99.90;;;;;;5082470;28;20036;-74
2023/08/29 09:47:08;;;;;;;1.05;0.50;;;16.20;99.90;;;;;;5104181;28;20036;-74
2023/08/29 09:49:42;;;;;;;0.95;0.40;;;16.20;99.90;;;;;;5080008;28;20043;-73
2023/08/29 09:52:13;;;;;;;1.50;0.40;;;16.10;99.90;;;;;;5065659;28;20512;-74
2023/08/29 09:54:49;;;;;;;1.08;0.40;;;16.20;99.90;;;;;;5083049;28;20392;-74
2023/08/29 09:57:19;;;;;;;1.20;0.40;;;16.10;99.90;;;;;;5118272;27;20067;-74
2023/08/29 09:59:45;;;;;;;0.93;0.40;;;16.20;99.90;;;;;;5106585;28;20027;-74
2023/08/29 10:02:12;;;;;;;0.80;0.30;;;16.30;99.90;;;;;;5104851;28;20400;-74
2023/08/29 10:04:44;;;;;;;0.70;0.40;;;16.20;99.90;;;;;;5104984;28;20087;-74
2023/08/29 10:07:16;;;;;;;1.42;0.50;;;16.20;99.90;;;;;;5101472;28;20039;-74
2023/08/29 10:09:43;;;;;;;0.50;0.28;;;16.20;99.90;;;;;;5099268;28;20090;-74
2023/08/29 10:12:09;;;;;;;1.27;0.17;;;16.20;99.90;;;;;;5100906;28;20400;-74
2023/08/29 10:14:36;;;;;;;0.70;0.45;;;16.30;99.90;;;;;;5102576;28;20071;-74
2023/08/29 10:17:02;;;;;;;0.60;0.40;;;16.30;99.90;;;;;;5104532;28;20034;-74
2023/08/29 10:19:29;;;;;;;2.88;0.50;;;16.30;99.90;;;;;;5103191;28;20496;-74
2023/08/29 10:21:55;;;;;;;0.47;0.28;;;16.40;99.90;;;;;;5084311;28;20050;-74
2023/08/29 10:24:22;;;;;;;1.50;0.40;;;16.40;99.90;;;;;;5104311;28;20114;-74
2023/08/29 10:26:49;;;;;;;1.40;0.60;;;16.40;99.90;;;;;;5104192;28;20764;-74
2023/08/29 10:29:16;;;;;;;0.30;0.22;;;16.40;99.90;;;;;;5100714;28;20039;-74
2023/08/29 10:31:45;;;;;;;1.27;0.40;;;16.50;99.90;;;;;;5083891;28;20220;-74
2023/08/29 10:34:11;;;;;;;1.85;0.43;;;16.50;99.90;;;;;;5099934;28;20648;-74
2023/08/29 10:36:39;;;;;;;0.68;0.32;;;16.50;99.90;;;;;;5083710;28;20126;-75
2023/08/29 10:39:09;;;;;;;0.85;0.30;;;16.50;99.90;;;;;;5079619;28;20027;-74
2023/08/29 10:41:47;;;;;;;1.02;0.43;;;16.50;99.90;;;;;;5085138;28;20046;-74
2023/08/29 10:44:36;;;;;;;0.63;0.30;;;16.40;99.90;;;;;;5115834;27;21357;-74
2023/08/29 10:47:44;;;;;;;2.05;0.40;;;16.50;99.90;;;;;;5081346;28;21781;-75
2023/08/29 10:50:24;;;;;;;0.60;0.30;;;16.50;99.90;;;;;;5015189;28;20118;-75
2023/08/29 10:52:56;;;;;;;1.42;0.25;;;16.50;99.90;;;;;;5099466;28;20039;-75
2023/08/29 10:55:23;;;;;;;0.85;0.43;;;16.50;99.90;;;;;;5068443;28;20515;-75
2023/08/29 10:57:51;;;;;;;2.28;0.38;;;16.50;99.90;;;;;;5084261;28;20054;-75
2023/08/29 11:00:41;;;;;;;4.60;0.40;;;16.50;99.90;;;;;;5100402;28;20074;-74
2023/08/29 11:03:07;;;;;;;0.60;0.38;;;16.50;99.90;;;;;;5088365;28;20050;-74
2023/08/29 11:05:38;;;;;;;0.70;0.30;;;16.50;99.90;;;;;;5080258;28;20040;-74
2023/08/29 11:08:23;;;;;;;1.85;0.30;;;16.50;99.90;;;;;;5085501;28;20096;-75
2023/08/29 11:11:18;;;;;;;1.02;0.40;;;16.50;99.90;;;;;;5102298;28;20032;-74
2023/08/29 11:14:08;;;;;;;1.10;0.40;;;16.60;99.90;;;;;;5083074;28;20435;-75
2023/08/29 11:16:35;;;;;;;1.02;0.40;;;16.70;99.90;;;;;;5080104;28;20049;-73
2023/08/29 11:19:05;;;;;;;0.88;0.43;;;16.70;99.90;;;;;;5100821;28;20115;-73
2023/08/29 11:21:31;;;;;;;0.80;0.40;;;16.70;99.90;;;;;;5081202;28;20509;-73
2023/08/29 11:23:58;;;;;;;0.55;0.30;;;16.80;99.90;;;;;;5062978;28;20564;-73
2023/08/29 11:26:24;;;;;;;0.73;0.40;;;16.80;99.90;;;;;;5066769;28;20063;-73
2023/08/29 11:28:51;;;;;;;0.93;0.30;;;16.80;99.90;;;;;;5114471;27;20085;-74
2023/08/29 11:31:20;;;;;;;0.65;0.40;;;16.90;99.90;;;;;;5082906;28;20043;-74
2023/08/29 11:33:46;;;;;;;0.90;0.40;;;16.90;99.90;;;;;;5101686;28;20036;-72
2023/08/29 11:36:12;;;;;;;0.40;0.25;;;16.90;99.90;;;;;;5080545;28;20157;-74
2023/08/29 11:38:38;;;;;;;1.00;0.50;;;17.00;99.90;;;;;;5093267;28;20761;-74
2023/08/29 11:41:05;;;;;;;0.93;0.30;;;17.00;99.90;;;;;;5067942;28;20092;-74
2023/08/29 11:43:34;;;;;;;0.65;0.40;;;17.00;99.90;;;;;;5100627;28;20044;-74
2023/08/29 11:46:02;;;;;;;0.73;0.32;;;17.10;99.90;;;;;;5081532;28;20035;-74
2023/08/29 11:48:31;;;;;;;0.77;0.50;;;17.10;99.90;;;;;;5097325;28;20032;-74
2023/08/29 11:51:04;;;;;;;1.52;0.70;;;17.20;99.90;;;;;;5102001;27;20075;-74
2023/08/29 11:53:33;;;;;;;1.10;0.63;;;17.30;99.90;;;;;;5106112;28;20047;-74
2023/08/29 11:56:00;;;;;;;1.08;0.60;;;17.40;99.90;;;;;;5088135;28;20043;-74
2023/08/29 11:58:27;;;;;;;1.38;0.70;;;17.50;99.90;;;;;;5088846;28;20429;-74
2023/08/29 12:00:53;;;;;;;1.42;0.70;;;17.50;99.90;;;;;;5106411;27;20048;-74
2023/08/29 12:03:25;;;;;;;1.90;0.70;;;17.60;99.90;;;;;;5088199;28;20047;-74
2023/08/29 12:05:50;;;;;;;1.25;0.60;;;17.60;99.90;;;;;;5102885;28;20168;-74
2023/08/29 12:08:16;;;;;;;1.77;0.50;;;17.60;99.90;;;;;;5085332;28;20190;-74
2023/08/29 12:10:52;;;;;;;1.60;0.52;;;17.60;99.90;;;;;;5086203;28;20036;-74
2023/08/29 12:13:18;;;;;;;1.73;0.82;;;17.60;99.90;;;;;;5084761;28;20170;-74
2023/08/29 12:15:43;;;;;;;1.80;0.63;;;17.70;99.90;;;;;;5088853;28;20106;-74
2023/08/29 12:18:23;;;;;;;0.70;0.35;;;17.60;99.90;;;;;;5106575;28;20497;-74
2023/08/29 12:20:49;;;;;;;0.98;0.47;;;17.70;99.90;;;;;;5084014;28;20048;-74
2023/08/29 12:23:28;;;;;;;1.48;0.47;;;17.70;99.90;;;;;;5084277;28;20051;-74
2023/08/29 12:25:58;;;;;;;1.23;0.52;;;17.70;99.90;;;;;;5105811;28;20035;-74
2023/08/29 12:28:24;;;;;;;2.40;0.60;;;17.70;99.90;;;;;;5068975;28;20034;-74
2023/08/29 12:30:51;;;;;;;1.20;0.43;;;17.70;99.90;;;;;;5107083;28;20115;-74
2023/08/29 12:33:17;;;;;;;1.20;0.45;;;17.70;99.90;;;;;;5087851;28;20047;-75
2023/08/29 12:35:42;;;;;;;1.63;0.60;;;17.70;99.90;;;;;;5103212;28;20507;-75
2023/08/29 12:38:08;;;;;;;1.15;0.52;;;17.70;99.90;;;;;;5104160;28;20035;-74
2023/08/29 12:40:37;;;;;;;0.77;0.45;;;17.70;99.90;;;;;;5084437;28;20114;-74
2023/08/29 12:43:05;;;;;;;1.38;0.57;;;17.70;99.90;;;;;;5087302;28;20092;-75
2023/08/29 12:45:31;;;;;;;1.15;0.50;;;17.70;99.90;;;;;;5071529;28;20537;-74
2023/08/29 12:47:57;;;;;;;1.17;0.40;;;17.70;99.90;;;;;;5088279;28;20037;-74
2023/08/29 12:50:22;;;;;;;1.60;0.65;;;17.70;99.90;;;;;;5103796;28;20221;-74